createdAt,value
2019-03-21T00:00:30.455Z,38.25
2019-03-21T00:03:01.871Z,43.00
2019-03-21T00:05:35.211Z,44.00
2019-03-21T00:08:07.999Z,41.40
2019-03-21T00:11:15.353Z,38.20
2019-03-21T00:13:46.882Z,41.00
2019-03-21T00:16:18.255Z,42.40
2019-03-21T00:18:49.662Z,45.00
2019-03-21T00:21:21.069Z,43.00
2019-03-21T00:23:52.273Z,42.00
2019-03-21T00:26:24.232Z,43.60
2019-03-21T00:28:55.567Z,43.00
2019-03-21T00:31:26.896Z,44.60
2019-03-21T00:33:58.366Z,45.00
2019-03-21T00:36:29.680Z,46.00
2019-03-21T00:39:01.066Z,44.00
2019-03-21T00:41:33.114Z,43.00
2019-03-21T00:44:04.615Z,42.00
2019-03-21T00:46:35.989Z,45.25
2019-03-21T00:49:07.308Z,42.00
2019-03-21T00:51:38.695Z,48.50
2019-03-21T00:54:09.994Z,46.40
2019-03-21T00:56:41.267Z,47.60
2019-03-21T00:59:12.675Z,49.00
2019-03-21T01:01:43.953Z,45.00
2019-03-21T01:04:15.421Z,45.50
2019-03-21T01:06:46.645Z,46.50
2019-03-21T01:09:17.983Z,44.40
2019-03-21T01:11:49.184Z,47.40
2019-03-21T01:14:29.381Z,48.50
2019-03-21T01:16:53.289Z,48.00
2019-03-21T01:19:24.595Z,45.40
2019-03-21T01:21:55.882Z,46.00
2019-03-21T01:24:27.200Z,48.50
2019-03-21T01:26:58.351Z,45.60
2019-03-21T01:29:29.714Z,49.00
2019-03-21T01:32:00.992Z,45.25
2019-03-21T01:34:32.380Z,49.00
2019-03-21T01:37:03.899Z,48.50
2019-03-21T01:39:35.162Z,47.40
2019-03-21T01:42:06.538Z,47.00
2019-03-21T01:44:41.243Z,48.00
2019-03-21T01:47:11.104Z,48.00
2019-03-21T01:49:42.634Z,49.80
2019-03-21T01:52:14.016Z,49.25
2019-03-21T01:54:45.291Z,50.80
2019-03-21T01:57:16.596Z,49.75
2019-03-21T01:59:47.883Z,49.00
2019-03-21T02:02:19.194Z,51.00
2019-03-21T02:04:50.511Z,50.50
2019-03-21T02:07:21.882Z,50.80
2019-03-21T02:09:53.198Z,50.40
2019-03-21T02:12:24.589Z,50.20
2019-03-21T02:14:55.887Z,46.25
2019-03-21T02:17:27.269Z,45.60
2019-03-21T02:19:58.552Z,49.00
2019-03-21T02:22:29.862Z,50.00
2019-03-21T02:25:01.292Z,47.80
2019-03-21T02:27:32.533Z,50.50
2019-03-21T02:30:05.211Z,48.80
2019-03-21T02:32:36.494Z,48.60
2019-03-21T02:35:08.796Z,49.00
2019-03-21T02:37:40.100Z,50.00
2019-03-21T02:40:14.335Z,50.00
2019-03-21T02:42:45.552Z,49.20
2019-03-21T02:45:17.109Z,49.50
2019-03-21T02:47:48.665Z,50.20
2019-03-21T02:50:25.697Z,48.80
2019-03-21T02:52:56.900Z,50.60
2019-03-21T02:55:28.196Z,50.25
2019-03-21T02:57:59.558Z,48.25
2019-03-21T03:00:31.473Z,48.60
2019-03-21T03:03:02.629Z,49.20
2019-03-21T03:05:33.988Z,49.50
2019-03-21T03:08:05.308Z,50.60
2019-03-21T03:10:45.272Z,49.80
2019-03-21T03:13:16.449Z,49.00
2019-03-21T03:15:47.876Z,49.20
2019-03-21T03:18:19.281Z,51.00
2019-03-21T03:20:50.609Z,48.00
2019-03-21T03:23:21.867Z,51.00
2019-03-21T03:25:53.054Z,49.00
2019-03-21T03:28:25.559Z,49.00
2019-03-21T03:30:57.273Z,50.00
2019-03-21T03:33:29.539Z,49.25
2019-03-21T03:36:00.793Z,46.50
2019-03-21T03:38:32.015Z,46.00
2019-03-21T03:41:03.427Z,46.00
2019-03-21T03:43:34.702Z,49.00
2019-03-21T03:46:06.056Z,48.00
2019-03-21T03:48:37.267Z,49.20
2019-03-21T03:51:08.693Z,51.25
2019-03-21T03:53:42.438Z,48.00
2019-03-21T03:56:13.135Z,52.00
2019-03-21T03:58:45.282Z,51.00
2019-03-21T04:01:16.565Z,46.00
2019-03-21T04:03:47.931Z,50.75
2019-03-21T04:06:19.233Z,49.75
2019-03-21T04:08:50.532Z,49.00
2019-03-21T04:11:21.929Z,47.00
2019-03-21T04:13:53.203Z,45.50
2019-03-21T04:16:24.572Z,49.00
2019-03-21T04:18:55.923Z,45.20
2019-03-21T04:21:27.165Z,49.00
2019-03-21T04:23:59.936Z,49.40
2019-03-21T04:26:31.959Z,49.00
2019-03-21T04:29:03.177Z,49.00
2019-03-21T04:31:35.608Z,51.00
2019-03-21T04:34:07.649Z,50.40
2019-03-21T04:36:38.930Z,49.25
2019-03-21T04:39:10.872Z,48.20
2019-03-21T04:41:42.873Z,51.40
2019-03-21T04:44:14.194Z,49.50
2019-03-21T04:46:45.729Z,51.00
2019-03-21T04:49:17.012Z,51.00
2019-03-21T04:51:48.342Z,49.80
2019-03-21T04:54:19.581Z,52.00
2019-03-21T04:56:51.022Z,49.00
2019-03-21T04:59:22.290Z,51.00
2019-03-21T05:01:53.461Z,50.25
2019-03-21T05:04:24.775Z,51.00
2019-03-21T05:06:56.189Z,50.40
2019-03-21T05:09:27.487Z,51.00
2019-03-21T05:11:58.784Z,51.00
2019-03-21T05:14:30.006Z,51.80
2019-03-21T05:17:01.450Z,51.00
2019-03-21T05:19:32.747Z,49.00
2019-03-21T05:22:04.370Z,51.80
2019-03-21T05:24:35.566Z,49.25
2019-03-21T05:27:06.987Z,51.00
2019-03-21T05:29:38.257Z,49.00
2019-03-21T05:32:09.650Z,49.50
2019-03-21T05:34:41.951Z,50.20
2019-03-21T05:37:13.315Z,51.00
2019-03-21T05:39:44.607Z,50.00
2019-03-21T05:42:19.303Z,49.20
2019-03-21T05:44:50.563Z,50.80
2019-03-21T05:47:21.950Z,45.60
2019-03-21T05:49:53.111Z,49.75
2019-03-21T05:52:24.345Z,51.00
2019-03-21T05:54:55.651Z,50.00
2019-03-21T05:57:27.132Z,51.75
2019-03-21T05:59:58.295Z,47.00
2019-03-21T06:02:29.629Z,47.00
2019-03-21T06:05:00.923Z,50.40
2019-03-21T06:07:41.240Z,46.60
2019-03-21T06:10:13.732Z,48.50
2019-03-21T06:12:43.806Z,47.00
2019-03-21T06:15:17.032Z,50.40
2019-03-21T06:17:53.706Z,49.00
2019-03-21T06:20:40.904Z,46.40
2019-03-21T06:23:52.518Z,49.20
2019-03-21T06:26:55.834Z,51.00
2019-03-21T06:29:27.052Z,50.00
2019-03-21T06:31:58.201Z,48.00
2019-03-21T06:34:29.619Z,48.00
2019-03-21T06:37:01.000Z,45.60
2019-03-21T06:39:32.205Z,46.75
2019-03-21T06:42:03.490Z,44.50
2019-03-21T06:44:34.807Z,44.75
2019-03-21T06:47:06.017Z,48.25
2019-03-21T06:49:37.330Z,45.00
2019-03-21T06:52:08.597Z,48.40
2019-03-21T06:54:39.997Z,44.00
2019-03-21T06:57:11.321Z,43.80
2019-03-21T06:59:42.574Z,48.00
2019-03-21T07:02:13.816Z,44.00
2019-03-21T07:04:45.185Z,43.25
2019-03-21T07:07:16.452Z,46.00
2019-03-21T07:09:47.748Z,44.00
2019-03-21T07:12:19.071Z,45.75
2019-03-21T07:14:50.387Z,46.00
2019-03-21T07:17:22.959Z,44.25
2019-03-21T07:19:54.348Z,45.80
2019-03-21T07:22:25.638Z,44.60
2019-03-21T07:24:56.873Z,45.00
2019-03-21T07:27:28.166Z,46.80
2019-03-21T07:29:59.516Z,47.00
2019-03-21T07:32:33.583Z,48.00
2019-03-21T07:35:03.967Z,46.00
2019-03-21T07:37:35.310Z,49.75
2019-03-21T07:40:07.548Z,48.00
2019-03-21T07:42:38.902Z,46.00
2019-03-21T07:45:10.480Z,48.40
2019-03-21T07:47:41.765Z,47.20
2019-03-21T07:50:12.972Z,49.00
2019-03-21T07:52:44.243Z,47.75
2019-03-21T07:55:15.552Z,48.00
2019-03-21T07:57:46.983Z,47.00
2019-03-21T08:00:18.439Z,48.25
2019-03-21T08:02:49.854Z,47.00
2019-03-21T08:05:21.048Z,46.00
2019-03-21T08:07:52.440Z,48.00
2019-03-21T08:10:23.625Z,44.00
2019-03-21T08:12:55.048Z,48.00
2019-03-21T08:15:26.550Z,46.50
2019-03-21T08:17:57.937Z,45.60
2019-03-21T08:20:29.246Z,44.75
2019-03-21T08:23:00.579Z,42.20
2019-03-21T08:25:31.859Z,47.00
2019-03-21T08:28:03.157Z,44.00
2019-03-21T08:30:36.008Z,44.60
2019-03-21T08:33:07.382Z,47.00
2019-03-21T08:35:38.672Z,47.00
2019-03-21T08:38:10.078Z,43.00
2019-03-21T08:40:42.685Z,46.00
2019-03-21T08:43:14.172Z,43.50
2019-03-21T08:45:46.418Z,43.00
2019-03-21T08:48:17.803Z,47.00
2019-03-21T08:50:48.977Z,45.75
2019-03-21T08:53:20.160Z,45.25
2019-03-21T08:55:51.587Z,43.00
2019-03-21T08:58:22.863Z,44.80
2019-03-21T09:00:54.191Z,45.60
2019-03-21T09:03:25.608Z,45.00
2019-03-21T09:05:56.860Z,45.60
2019-03-21T09:08:28.073Z,42.00
2019-03-21T09:10:59.212Z,42.80
2019-03-21T09:13:30.483Z,43.20
2019-03-21T09:16:01.841Z,45.60
2019-03-21T09:18:33.229Z,41.80
2019-03-21T09:21:04.554Z,40.25
2019-03-21T09:23:35.845Z,41.50
2019-03-21T09:26:07.047Z,39.00
2019-03-21T09:28:38.362Z,41.00
2019-03-21T09:31:09.543Z,38.00
2019-03-21T09:33:40.924Z,37.60
2019-03-21T09:36:12.115Z,39.75
2019-03-21T09:38:43.523Z,40.20
2019-03-21T09:41:14.811Z,37.50
2019-03-21T09:43:45.993Z,37.75
2019-03-21T09:46:17.317Z,40.00
2019-03-21T09:48:48.710Z,39.00
2019-03-21T09:51:30.572Z,36.20
2019-03-21T09:54:09.235Z,33.80
2019-03-21T09:56:38.067Z,39.00
2019-03-21T09:59:10.061Z,34.20
2019-03-21T10:01:44.292Z,34.00
2019-03-21T10:11:42.100Z,36.00
2019-03-21T10:14:13.402Z,33.25
2019-03-21T10:16:44.711Z,36.25
2019-03-21T10:19:16.898Z,33.00
2019-03-21T10:21:48.316Z,32.00
2019-03-21T10:24:19.741Z,32.50
2019-03-21T10:26:51.013Z,28.60
2019-03-21T10:29:22.344Z,30.80
2019-03-21T10:31:53.588Z,36.60
2019-03-21T10:34:24.981Z,31.00
2019-03-21T10:36:56.401Z,32.00
2019-03-21T10:39:27.676Z,37.00
2019-03-21T10:41:59.183Z,34.00
2019-03-21T10:44:30.432Z,34.60
2019-03-21T10:47:01.664Z,35.00
2019-03-21T10:49:33.092Z,37.00
2019-03-21T10:52:05.384Z,35.00
2019-03-21T10:54:36.822Z,34.20
2019-03-21T10:57:08.098Z,32.60
2019-03-21T10:59:39.411Z,31.00
2019-03-21T11:02:10.797Z,37.00
2019-03-21T11:04:42.187Z,33.25
2019-03-21T11:07:11.168Z,31.00
2019-03-21T11:09:42.444Z,35.20
2019-03-21T11:12:13.832Z,39.20
2019-03-21T11:14:45.217Z,33.75
2019-03-21T11:17:16.632Z,37.40
2019-03-21T11:19:47.939Z,34.40
2019-03-21T11:22:19.332Z,37.00
2019-03-21T11:24:50.627Z,33.50
2019-03-21T11:27:21.923Z,36.60
2019-03-21T11:29:53.212Z,33.00
2019-03-21T11:32:24.583Z,34.80
2019-03-21T11:34:56.415Z,37.00
2019-03-21T11:37:27.922Z,36.00
2019-03-21T11:39:59.128Z,36.25
2019-03-21T11:42:30.520Z,32.60
2019-03-21T11:45:01.737Z,36.80
2019-03-21T11:47:41.397Z,40.40
2019-03-21T11:50:06.825Z,35.60
2019-03-21T11:52:40.931Z,35.60
2019-03-21T11:55:11.312Z,35.00
2019-03-21T11:57:42.569Z,36.80
2019-03-21T12:00:14.358Z,33.00
2019-03-21T12:02:45.835Z,37.60
2019-03-21T12:05:17.132Z,36.40
2019-03-21T12:07:48.496Z,33.80
2019-03-21T12:10:19.903Z,39.00
2019-03-21T12:12:52.147Z,36.00
2019-03-21T12:15:23.216Z,34.80
2019-03-21T12:17:54.638Z,37.00
2019-03-21T12:20:35.631Z,34.60
2019-03-21T12:23:06.824Z,37.75
2019-03-21T12:25:38.128Z,35.50
2019-03-21T12:28:09.299Z,33.50
2019-03-21T12:30:43.940Z,35.00
2019-03-21T12:33:15.192Z,35.80
2019-03-21T12:35:46.261Z,37.00
2019-03-21T12:38:17.585Z,34.00
2019-03-21T12:40:48.968Z,37.75
2019-03-21T12:43:20.380Z,36.40
2019-03-21T12:45:51.669Z,38.00
2019-03-21T12:48:26.131Z,35.80
2019-03-21T12:50:57.425Z,33.75
2019-03-21T12:53:28.774Z,34.00
2019-03-21T12:56:00.228Z,33.00
2019-03-21T12:58:32.460Z,36.00
2019-03-21T13:01:03.624Z,35.00
2019-03-21T13:03:34.849Z,34.00
2019-03-21T13:06:06.245Z,36.50
2019-03-21T13:08:37.540Z,35.00
2019-03-21T13:11:08.847Z,35.75
2019-03-21T13:16:36.334Z,35.75
2019-03-21T13:19:07.771Z,35.20
2019-03-21T13:21:38.745Z,35.50
2019-03-21T13:24:10.173Z,34.80
2019-03-21T13:26:41.376Z,33.50
2019-03-21T13:29:12.635Z,30.60
2019-03-21T13:31:44.146Z,34.80
2019-03-21T13:34:15.733Z,32.40
2019-03-21T13:36:47.047Z,35.40
2019-03-21T13:39:18.608Z,29.80
2019-03-21T13:41:49.937Z,32.20
2019-03-21T13:44:21.264Z,32.25
2019-03-21T13:46:52.435Z,29.40
2019-03-21T13:49:23.749Z,31.50
2019-03-21T13:51:55.021Z,30.00
2019-03-21T13:54:26.418Z,30.75
2019-03-21T13:56:57.521Z,31.40
2019-03-21T13:59:28.926Z,30.20
2019-03-21T14:02:00.129Z,32.00
2019-03-21T14:04:31.374Z,25.00
2019-03-21T14:07:02.611Z,32.80
2019-03-21T14:09:35.040Z,32.60
2019-03-21T14:12:06.208Z,26.00
2019-03-21T14:14:37.503Z,27.00
2019-03-21T14:17:08.803Z,30.00
2019-03-21T14:19:40.328Z,27.25
2019-03-21T14:22:11.679Z,25.00
2019-03-21T14:24:43.026Z,31.75
2019-03-21T14:27:14.206Z,26.60
2019-03-21T14:29:45.570Z,27.60
2019-03-21T14:32:16.886Z,29.40
2019-03-21T14:34:48.113Z,31.00
2019-03-21T14:37:19.488Z,26.00
2019-03-21T14:39:50.769Z,25.25
2019-03-21T14:42:21.994Z,23.00
2019-03-21T14:44:55.211Z,26.40
2019-03-21T14:47:35.777Z,28.00
2019-03-21T14:49:59.970Z,29.75
2019-03-21T14:52:32.160Z,23.20
2019-03-21T14:55:03.391Z,33.00
2019-03-21T14:57:34.963Z,30.75
2019-03-21T15:00:07.538Z,26.80
2019-03-21T15:02:38.841Z,24.00
2019-03-21T15:05:10.128Z,29.60
2019-03-21T15:07:41.426Z,30.00
2019-03-21T15:10:12.663Z,30.50
2019-03-21T15:12:43.883Z,27.75
2019-03-21T15:15:15.185Z,27.00
2019-03-21T15:17:47.210Z,32.00
2019-03-21T15:20:18.587Z,31.60
2019-03-21T15:22:49.865Z,30.25
2019-03-21T15:25:21.905Z,28.80
2019-03-21T15:27:53.325Z,32.00
2019-03-21T15:30:24.613Z,29.80
2019-03-21T15:32:55.786Z,30.00
2019-03-21T15:35:28.223Z,29.60
2019-03-21T15:38:00.456Z,28.80
2019-03-21T15:40:32.146Z,28.60
2019-03-21T15:43:03.478Z,30.00
2019-03-21T15:45:34.963Z,31.00
2019-03-21T15:48:06.329Z,31.80
2019-03-21T15:50:38.503Z,29.00
2019-03-21T15:53:09.865Z,32.00
2019-03-21T15:55:41.277Z,32.40
2019-03-21T15:58:12.436Z,36.40
2019-03-21T16:00:44.563Z,31.00
2019-03-21T16:03:15.848Z,35.50
2019-03-21T16:05:47.362Z,31.40
2019-03-21T16:08:21.392Z,32.00
2019-03-21T16:10:53.559Z,33.00
2019-03-21T16:13:24.930Z,31.60
2019-03-21T16:15:56.263Z,30.20
2019-03-21T16:18:28.423Z,36.80
2019-03-21T16:20:59.969Z,35.00
2019-03-21T16:23:31.144Z,36.60
2019-03-21T16:26:02.462Z,34.00
2019-03-21T16:28:33.609Z,33.50
2019-03-21T16:31:04.821Z,33.00
2019-03-21T16:33:36.101Z,41.20
2019-03-21T16:36:07.447Z,35.50
2019-03-21T16:38:40.014Z,36.00
2019-03-21T16:41:11.372Z,34.00
2019-03-21T16:43:44.918Z,35.40
2019-03-21T16:46:16.193Z,31.00
2019-03-21T16:48:47.464Z,35.00
2019-03-21T16:51:18.710Z,33.60
2019-03-21T16:53:57.251Z,30.00
2019-03-21T16:56:28.548Z,33.40
2019-03-21T16:59:00.750Z,35.00
2019-03-21T17:01:32.086Z,37.00
2019-03-21T17:04:03.563Z,38.00
2019-03-21T17:06:36.309Z,36.00
2019-03-21T17:09:09.566Z,34.60
2019-03-21T17:11:40.970Z,33.80
2019-03-21T17:14:12.339Z,33.00
2019-03-21T17:16:44.573Z,35.40
2019-03-21T17:19:16.140Z,34.40
2019-03-21T17:21:47.480Z,35.25
2019-03-21T17:24:28.799Z,33.20
2019-03-21T17:26:52.011Z,37.20
2019-03-21T17:29:23.291Z,37.00
2019-03-21T17:31:54.793Z,31.00
2019-03-21T17:34:25.970Z,36.40
2019-03-21T17:36:57.250Z,37.75
2019-03-21T17:39:28.574Z,39.75
2019-03-21T17:41:59.861Z,36.40
2019-03-21T17:44:31.106Z,35.60
2019-03-21T17:47:02.247Z,37.00
2019-03-21T17:49:33.335Z,36.60
2019-03-21T17:52:04.536Z,34.00
2019-03-21T17:54:41.511Z,34.75
2019-03-21T17:57:08.769Z,35.50
2019-03-21T17:59:40.068Z,34.40
2019-03-21T18:02:11.357Z,34.40
2019-03-21T18:04:42.567Z,33.60
2019-03-21T18:07:13.652Z,35.00
2019-03-21T18:09:44.930Z,31.50
2019-03-21T18:12:16.236Z,35.00
2019-03-21T18:14:47.453Z,35.20
2019-03-21T18:17:18.862Z,35.00
2019-03-21T18:19:50.238Z,36.00
2019-03-21T18:22:21.542Z,32.60
2019-03-21T18:24:54.008Z,35.00
2019-03-21T18:27:25.662Z,35.00
2019-03-21T18:29:57.752Z,33.00
2019-03-21T18:32:29.173Z,31.80
2019-03-21T18:35:00.681Z,32.00
2019-03-21T18:37:32.843Z,34.75
2019-03-21T18:40:04.211Z,29.00
2019-03-21T18:42:35.587Z,32.60
2019-03-21T18:45:07.014Z,30.00
2019-03-21T18:47:38.487Z,34.00
2019-03-21T18:50:09.563Z,31.40
2019-03-21T18:52:40.893Z,30.50
2019-03-21T18:55:12.523Z,34.00
2019-03-21T18:57:43.912Z,32.20
2019-03-21T19:00:15.478Z,33.40
2019-03-21T19:02:46.881Z,33.20
2019-03-21T19:05:18.165Z,38.00
2019-03-21T19:07:49.497Z,32.00
2019-03-21T19:10:20.857Z,32.80
2019-03-21T19:12:52.360Z,35.00
2019-03-21T19:15:23.578Z,30.50
2019-03-21T19:17:55.225Z,36.40
2019-03-21T19:20:28.102Z,32.00
2019-03-21T19:22:59.294Z,32.00
2019-03-21T19:25:30.528Z,33.40
2019-03-21T19:28:01.773Z,35.60
2019-03-21T19:30:33.034Z,32.80
2019-03-21T19:33:04.341Z,31.00
2019-03-21T19:35:35.588Z,34.00
2019-03-21T19:38:06.939Z,32.00
2019-03-21T19:40:38.301Z,32.00
2019-03-21T19:43:09.797Z,34.60
2019-03-21T19:45:42.582Z,34.75
2019-03-21T19:48:13.826Z,34.60
2019-03-21T19:50:45.215Z,34.75
2019-03-21T19:53:18.444Z,34.00
2019-03-21T19:55:49.928Z,32.00
2019-03-21T19:58:21.201Z,32.80
2019-03-21T20:00:52.694Z,34.00
2019-03-21T20:03:23.917Z,32.80
2019-03-21T20:06:00.198Z,35.00
2019-03-21T20:08:28.017Z,35.00
2019-03-21T20:11:01.700Z,32.20
2019-03-21T20:13:34.210Z,32.00
2019-03-21T20:16:05.522Z,29.00
2019-03-21T20:18:36.824Z,32.00
2019-03-21T20:21:08.702Z,31.60
2019-03-21T20:23:40.005Z,33.60
2019-03-21T20:26:11.592Z,32.80
2019-03-21T20:28:42.692Z,32.25
2019-03-21T20:31:14.023Z,31.00
2019-03-21T20:33:45.389Z,30.20
2019-03-21T20:36:16.652Z,34.25
2019-03-21T20:38:48.016Z,28.00
2019-03-21T20:41:19.164Z,32.50
2019-03-21T20:43:50.461Z,30.60
2019-03-21T20:46:23.089Z,30.00
2019-03-21T20:48:52.019Z,32.00
2019-03-21T20:51:23.461Z,32.00
2019-03-21T20:53:54.855Z,30.20
2019-03-21T20:56:26.229Z,30.00
2019-03-21T20:58:57.567Z,35.00
2019-03-21T21:01:29.948Z,30.00
2019-03-21T21:04:01.259Z,28.40
2019-03-21T21:06:35.177Z,28.75
2019-03-21T21:09:08.325Z,27.00
2019-03-21T21:11:40.070Z,34.40
2019-03-21T21:14:11.432Z,33.00
2019-03-21T21:16:42.744Z,35.25
2019-03-21T21:19:13.930Z,30.60
2019-03-21T21:21:46.242Z,28.60
2019-03-21T21:24:17.356Z,30.25
2019-03-21T21:26:48.854Z,31.00
2019-03-21T21:29:20.240Z,31.00
2019-03-21T21:31:51.649Z,28.00
2019-03-21T21:34:23.047Z,32.75
2019-03-21T21:36:54.229Z,33.75
2019-03-21T21:39:25.667Z,32.40
2019-03-21T21:41:57.985Z,30.00
2019-03-21T21:44:30.277Z,31.75
2019-03-21T21:47:01.676Z,27.20
2019-03-21T21:49:33.017Z,30.40
2019-03-21T21:52:04.403Z,34.60
2019-03-21T21:54:35.763Z,30.20
2019-03-21T21:57:07.277Z,30.20
2019-03-21T21:59:38.661Z,29.25
2019-03-21T22:02:10.072Z,32.00
2019-03-21T22:04:41.361Z,31.00
2019-03-21T22:07:12.668Z,33.50
2019-03-21T22:09:43.968Z,32.60
2019-03-21T22:12:15.273Z,33.50
2019-03-21T22:14:47.158Z,36.00
2019-03-21T22:17:18.473Z,37.60
2019-03-21T22:19:49.904Z,36.00
2019-03-21T22:22:21.201Z,35.60
2019-03-21T22:24:53.282Z,39.00
2019-03-21T22:27:24.613Z,43.40
2019-03-21T22:29:55.782Z,39.00
2019-03-21T22:32:27.174Z,40.60
2019-03-21T22:34:58.481Z,40.00
2019-03-21T22:37:30.915Z,39.40
2019-03-21T22:40:02.194Z,43.00
2019-03-21T22:42:33.580Z,42.60
2019-03-21T22:45:05.168Z,43.00
2019-03-21T22:47:36.378Z,42.50
2019-03-21T22:50:10.200Z,39.20
2019-03-21T22:52:42.343Z,42.75
2019-03-21T22:55:14.466Z,38.40
2019-03-21T22:57:45.770Z,43.00
2019-03-21T23:00:18.003Z,38.80
2019-03-21T23:02:50.862Z,40.80
2019-03-21T23:05:22.299Z,41.00
2019-03-21T23:07:53.515Z,43.80
2019-03-21T23:10:24.728Z,38.00
2019-03-21T23:12:56.056Z,41.60
2019-03-21T23:15:27.356Z,39.00
2019-03-21T23:17:58.610Z,39.60
2019-03-21T23:20:29.903Z,40.20
2019-03-21T23:23:01.099Z,39.50
2019-03-21T23:25:32.492Z,42.50
2019-03-21T23:28:03.813Z,42.40
2019-03-21T23:30:37.004Z,42.40
2019-03-21T23:33:09.239Z,38.40
2019-03-21T23:35:40.439Z,41.00
2019-03-21T23:38:11.812Z,38.50
2019-03-21T23:40:43.346Z,39.40
2019-03-21T23:43:14.717Z,42.75
2019-03-21T23:45:45.968Z,39.00
2019-03-21T23:48:17.885Z,40.00
2019-03-21T23:50:49.365Z,39.00
2019-03-21T23:53:22.576Z,40.80
2019-03-21T23:55:53.801Z,42.20
2019-03-21T23:58:25.115Z,39.40
